sensor_id;sensor_type;location;lat;lon;timestamp;temperature;humidity
2647;DHT22;1333;50.958;6.770;2023-11-18T00:00:08;4.00;99.90
2647;DHT22;1333;50.958;6.770;2023-11-18T00:02:37;4.00;99.90
2647;DHT22;1333;50.958;6.770;2023-11-18T00:05:04;4.00;99.90
2647;DHT22;1333;50.958;6.770;2023-11-18T00:07:29;4.00;99.90
2647;DHT22;1333;50.958;6.770;2023-11-18T00:09:57;4.00;99.90
2647;DHT22;1333;50.958;6.770;2023-11-18T00:12:22;4.00;99.90
2647;DHT22;1333;50.958;6.770;2023-11-18T00:14:49;4.10;99.90
2647;DHT22;1333;50.958;6.770;2023-11-18T00:17:15;4.20;99.90
2647;DHT22;1333;50.958;6.770;2023-11-18T00:19:41;4.20;99.90
2647;DHT22;1333;50.958;6.770;2023-11-18T00:22:08;4.10;99.90
2647;DHT22;1333;50.958;6.770;2023-11-18T00:24:33;4.10;99.90
2647;DHT22;1333;50.958;6.770;2023-11-18T00:27:02;4.20;99.90
2647;DHT22;1333;50.958;6.770;2023-11-18T00:29:35;4.30;99.90
2647;DHT22;1333;50.958;6.770;2023-11-18T00:32:01;4.40;99.90
2647;DHT22;1333;50.958;6.770;2023-11-18T00:34:28;4.30;99.90
2647;DHT22;1333;50.958;6.770;2023-11-18T00:36:54;4.30;99.90
2647;DHT22;1333;50.958;6.770;2023-11-18T00:39:22;4.40;99.90
2647;DHT22;1333;50.958;6.770;2023-11-18T00:41:48;4.40;99.90
2647;DHT22;1333;50.958;6.770;2023-11-18T00:44:14;4.50;99.90
2647;DHT22;1333;50.958;6.770;2023-11-18T00:46:39;4.40;99.90
2647;DHT22;1333;50.958;6.770;2023-11-18T00:49:05;4.40;99.90
2647;DHT22;1333;50.958;6.770;2023-11-18T00:51:31;4.50;99.90
2647;DHT22;1333;50.958;6.770;2023-11-18T00:53:57;4.40;99.90
2647;DHT22;1333;50.958;6.770;2023-11-18T00:56:22;4.50;99.90
2647;DHT22;1333;50.958;6.770;2023-11-18T00:58:48;4.50;99.90
2647;DHT22;1333;50.958;6.770;2023-11-18T01:01:14;4.50;99.90
2647;DHT22;1333;50.958;6.770;2023-11-18T01:03:44;4.60;99.90
2647;DHT22;1333;50.958;6.770;2023-11-18T01:06:09;4.50;99.90
2647;DHT22;1333;50.958;6.770;2023-11-18T01:08:35;4.60;99.90
2647;DHT22;1333;50.958;6.770;2023-11-18T01:11:00;4.70;99.90
2647;DHT22;1333;50.958;6.770;2023-11-18T01:13:26;4.70;99.90
2647;DHT22;1333;50.958;6.770;2023-11-18T01:15:52;4.70;99.90
2647;DHT22;1333;50.958;6.770;2023-11-18T01:18:17;4.70;99.90
2647;DHT22;1333;50.958;6.770;2023-11-18T01:20:43;4.60;99.90
2647;DHT22;1333;50.958;6.770;2023-11-18T01:23:08;4.70;99.90
2647;DHT22;1333;50.958;6.770;2023-11-18T01:25:34;4.60;99.90
2647;DHT22;1333;50.958;6.770;2023-11-18T01:28:00;4.70;99.90
2647;DHT22;1333;50.958;6.770;2023-11-18T01:30:25;4.70;99.90
2647;DHT22;1333;50.958;6.770;2023-11-18T01:32:52;4.80;99.90
2647;DHT22;1333;50.958;6.770;2023-11-18T01:35:18;4.80;99.90
2647;DHT22;1333;50.958;6.770;2023-11-18T01:37:44;4.80;99.90
2647;DHT22;1333;50.958;6.770;2023-11-18T01:40:10;4.80;99.90
2647;DHT22;1333;50.958;6.770;2023-11-18T01:42:44;4.80;99.90
2647;DHT22;1333;50.958;6.770;2023-11-18T01:45:14;4.90;99.90
2647;DHT22;1333;50.958;6.770;2023-11-18T01:47:42;4.90;99.90
2647;DHT22;1333;50.958;6.770;2023-11-18T01:50:09;4.90;99.90
2647;DHT22;1333;50.958;6.770;2023-11-18T01:52:36;5.00;99.90
2647;DHT22;1333;50.958;6.770;2023-11-18T01:55:03;5.00;99.90
2647;DHT22;1333;50.958;6.770;2023-11-18T01:57:33;5.00;99.90
2647;DHT22;1333;50.958;6.770;2023-11-18T01:59:59;5.00;99.90
2647;DHT22;1333;50.958;6.770;2023-11-18T02:02:25;5.00;99.90
2647;DHT22;1333;50.958;6.770;2023-11-18T02:04:51;4.90;99.90
2647;DHT22;1333;50.958;6.770;2023-11-18T02:07:17;5.00;99.90
2647;DHT22;1333;50.958;6.770;2023-11-18T02:09:44;5.10;99.90
2647;DHT22;1333;50.958;6.770;2023-11-18T02:12:31;5.10;99.90
2647;DHT22;1333;50.958;6.770;2023-11-18T02:15:01;5.10;99.90
2647;DHT22;1333;50.958;6.770;2023-11-18T02:17:28;5.20;99.90
2647;DHT22;1333;50.958;6.770;2023-11-18T02:19:56;5.20;99.90
2647;DHT22;1333;50.958;6.770;2023-11-18T02:22:23;5.20;99.90
2647;DHT22;1333;50.958;6.770;2023-11-18T02:24:49;5.20;99.90
2647;DHT22;1333;50.958;6.770;2023-11-18T02:27:15;5.30;99.90
2647;DHT22;1333;50.958;6.770;2023-11-18T02:29:43;5.30;99.90
2647;DHT22;1333;50.958;6.770;2023-11-18T02:32:15;5.30;99.90
2647;DHT22;1333;50.958;6.770;2023-11-18T02:34:58;5.30;99.90
2647;DHT22;1333;50.958;6.770;2023-11-18T02:37:27;5.30;99.90
2647;DHT22;1333;50.958;6.770;2023-11-18T02:40:03;5.30;99.90
2647;DHT22;1333;50.958;6.770;2023-11-18T02:42:35;5.30;99.90
2647;DHT22;1333;50.958;6.770;2023-11-18T02:45:01;5.40;99.90
2647;DHT22;1333;50.958;6.770;2023-11-18T02:47:27;5.40;99.90
2647;DHT22;1333;50.958;6.770;2023-11-18T02:49:56;5.30;99.90
2647;DHT22;1333;50.958;6.770;2023-11-18T02:52:22;5.40;99.90
2647;DHT22;1333;50.958;6.770;2023-11-18T02:54:48;5.40;99.90
2647;DHT22;1333;50.958;6.770;2023-11-18T02:57:13;5.40;99.90
2647;DHT22;1333;50.958;6.770;2023-11-18T02:59:39;5.40;99.90
2647;DHT22;1333;50.958;6.770;2023-11-18T03:02:04;5.30;99.90
2647;DHT22;1333;50.958;6.770;2023-11-18T03:04:31;5.40;99.90
2647;DHT22;1333;50.958;6.770;2023-11-18T03:06:57;5.50;99.90
2647;DHT22;1333;50.958;6.770;2023-11-18T03:09:22;5.50;99.90
2647;DHT22;1333;50.958;6.770;2023-11-18T03:11:53;5.50;99.90
2647;DHT22;1333;50.958;6.770;2023-11-18T03:14:18;5.50;99.90
2647;DHT22;1333;50.958;6.770;2023-11-18T03:16:44;5.60;99.90
2647;DHT22;1333;50.958;6.770;2023-11-18T03:19:10;5.60;99.90
2647;DHT22;1333;50.958;6.770;2023-11-18T03:21:36;5.60;99.90
2647;DHT22;1333;50.958;6.770;2023-11-18T03:24:02;5.60;99.90
2647;DHT22;1333;50.958;6.770;2023-11-18T03:26:27;5.50;99.90
2647;DHT22;1333;50.958;6.770;2023-11-18T03:28:53;5.50;99.90
2647;DHT22;1333;50.958;6.770;2023-11-18T03:31:18;5.50;99.90
2647;DHT22;1333;50.958;6.770;2023-11-18T03:33:45;5.50;99.90
2647;DHT22;1333;50.958;6.770;2023-11-18T03:36:10;5.50;99.90
2647;DHT22;1333;50.958;6.770;2023-11-18T03:38:37;5.30;99.90
2647;DHT22;1333;50.958;6.770;2023-11-18T03:41:03;5.30;99.90
2647;DHT22;1333;50.958;6.770;2023-11-18T03:43:28;5.30;99.90
2647;DHT22;1333;50.958;6.770;2023-11-18T03:45:54;5.50;99.90
2647;DHT22;1333;50.958;6.770;2023-11-18T03:48:22;5.50;99.90
2647;DHT22;1333;50.958;6.770;2023-11-18T03:50:48;5.50;99.90
2647;DHT22;1333;50.958;6.770;2023-11-18T03:53:13;5.50;99.90
2647;DHT22;1333;50.958;6.770;2023-11-18T03:55:39;5.50;99.90
2647;DHT22;1333;50.958;6.770;2023-11-18T03:58:04;5.50;99.90
2647;DHT22;1333;50.958;6.770;2023-11-18T04:00:30;5.50;99.90
2647;DHT22;1333;50.958;6.770;2023-11-18T04:02:56;5.60;99.90
2647;DHT22;1333;50.958;6.770;2023-11-18T04:05:22;5.60;99.90
2647;DHT22;1333;50.958;6.770;2023-11-18T04:07:48;5.60;99.90
2647;DHT22;1333;50.958;6.770;2023-11-18T04:10:13;5.60;99.90
2647;DHT22;1333;50.958;6.770;2023-11-18T04:12:40;5.50;99.90
2647;DHT22;1333;50.958;6.770;2023-11-18T04:15:06;5.50;99.90
2647;DHT22;1333;50.958;6.770;2023-11-18T04:17:32;5.40;99.90
2647;DHT22;1333;50.958;6.770;2023-11-18T04:19:58;5.30;99.90
2647;DHT22;1333;50.958;6.770;2023-11-18T04:22:24;5.30;99.90
2647;DHT22;1333;50.958;6.770;2023-11-18T04:24:49;5.20;99.90
2647;DHT22;1333;50.958;6.770;2023-11-18T04:27:15;5.10;99.90
2647;DHT22;1333;50.958;6.770;2023-11-18T04:29:41;5.20;99.90
2647;DHT22;1333;50.958;6.770;2023-11-18T04:32:07;5.10;99.90
2647;DHT22;1333;50.958;6.770;2023-11-18T04:34:36;5.10;99.90
2647;DHT22;1333;50.958;6.770;2023-11-18T04:37:03;5.10;99.90
2647;DHT22;1333;50.958;6.770;2023-11-18T04:39:31;5.10;99.90
2647;DHT22;1333;50.958;6.770;2023-11-18T04:41:57;5.10;99.90
2647;DHT22;1333;50.958;6.770;2023-11-18T04:44:22;5.00;99.90
2647;DHT22;1333;50.958;6.770;2023-11-18T04:46:48;5.00;99.90
2647;DHT22;1333;50.958;6.770;2023-11-18T04:49:13;5.00;99.90
2647;DHT22;1333;50.958;6.770;2023-11-18T04:51:39;5.00;99.90
2647;DHT22;1333;50.958;6.770;2023-11-18T04:54:05;5.10;99.90
2647;DHT22;1333;50.958;6.770;2023-11-18T04:56:33;5.10;99.90
2647;DHT22;1333;50.958;6.770;2023-11-18T04:59:01;5.10;99.90
2647;DHT22;1333;50.958;6.770;2023-11-18T05:01:26;5.10;99.90
2647;DHT22;1333;50.958;6.770;2023-11-18T05:03:52;5.10;99.90
2647;DHT22;1333;50.958;6.770;2023-11-18T05:06:18;5.10;99.90
2647;DHT22;1333;50.958;6.770;2023-11-18T05:08:45;5.10;99.90
2647;DHT22;1333;50.958;6.770;2023-11-18T05:11:11;5.10;99.90
2647;DHT22;1333;50.958;6.770;2023-11-18T05:13:38;5.10;99.90
2647;DHT22;1333;50.958;6.770;2023-11-18T05:16:06;5.10;99.90
2647;DHT22;1333;50.958;6.770;2023-11-18T05:18:31;5.20;99.90
2647;DHT22;1333;50.958;6.770;2023-11-18T05:21:01;5.20;99.90
2647;DHT22;1333;50.958;6.770;2023-11-18T05:23:28;5.20;99.90
2647;DHT22;1333;50.958;6.770;2023-11-18T05:25:57;5.10;99.90
2647;DHT22;1333;50.958;6.770;2023-11-18T05:28:23;5.10;99.90
2647;DHT22;1333;50.958;6.770;2023-11-18T05:30:49;5.00;99.90
2647;DHT22;1333;50.958;6.770;2023-11-18T05:33:16;5.10;99.90
2647;DHT22;1333;50.958;6.770;2023-11-18T05:35:43;5.20;99.90
2647;DHT22;1333;50.958;6.770;2023-11-18T05:38:15;5.20;99.90
2647;DHT22;1333;50.958;6.770;2023-11-18T05:40:44;5.20;99.90
2647;DHT22;1333;50.958;6.770;2023-11-18T05:43:19;5.20;99.90
2647;DHT22;1333;50.958;6.770;2023-11-18T05:45:46;5.20;99.90
2647;DHT22;1333;50.958;6.770;2023-11-18T05:48:31;5.30;99.90
2647;DHT22;1333;50.958;6.770;2023-11-18T05:50:57;5.30;99.90
2647;DHT22;1333;50.958;6.770;2023-11-18T05:53:22;5.30;99.90
2647;DHT22;1333;50.958;6.770;2023-11-18T05:55:48;5.30;99.90
2647;DHT22;1333;50.958;6.770;2023-11-18T05:58:15;5.30;99.90
2647;DHT22;1333;50.958;6.770;2023-11-18T06:00:40;5.30;99.90
2647;DHT22;1333;50.958;6.770;2023-11-18T06:03:06;5.30;99.90
2647;DHT22;1333;50.958;6.770;2023-11-18T06:05:31;5.30;99.90
2647;DHT22;1333;50.958;6.770;2023-11-18T06:08:00;5.30;99.90
2647;DHT22;1333;50.958;6.770;2023-11-18T06:10:26;5.30;99.90
2647;DHT22;1333;50.958;6.770;2023-11-18T06:12:51;5.40;99.90
2647;DHT22;1333;50.958;6.770;2023-11-18T06:15:18;5.40;99.90
2647;DHT22;1333;50.958;6.770;2023-11-18T06:17:44;5.40;99.90
2647;DHT22;1333;50.958;6.770;2023-11-18T06:20:10;5.40;99.90
2647;DHT22;1333;50.958;6.770;2023-11-18T06:22:36;5.40;99.90
2647;DHT22;1333;50.958;6.770;2023-11-18T06:25:01;5.40;99.90
2647;DHT22;1333;50.958;6.770;2023-11-18T06:27:27;5.40;99.90
2647;DHT22;1333;50.958;6.770;2023-11-18T06:29:53;5.50;99.90
2647;DHT22;1333;50.958;6.770;2023-11-18T06:32:20;5.40;99.90
2647;DHT22;1333;50.958;6.770;2023-11-18T06:34:45;5.40;99.90
2647;DHT22;1333;50.958;6.770;2023-11-18T06:37:11;5.30;99.90
2647;DHT22;1333;50.958;6.770;2023-11-18T06:39:41;5.40;99.90
2647;DHT22;1333;50.958;6.770;2023-11-18T06:42:09;5.50;99.90
2647;DHT22;1333;50.958;6.770;2023-11-18T06:44:37;5.50;99.90
2647;DHT22;1333;50.958;6.770;2023-11-18T06:47:03;5.50;99.90
2647;DHT22;1333;50.958;6.770;2023-11-18T06:49:30;5.50;99.90
2647;DHT22;1333;50.958;6.770;2023-11-18T06:52:00;5.50;99.90
2647;DHT22;1333;50.958;6.770;2023-11-18T06:54:28;5.50;99.90
2647;DHT22;1333;50.958;6.770;2023-11-18T06:56:54;5.50;99.90
2647;DHT22;1333;50.958;6.770;2023-11-18T06:59:19;5.50;99.90
2647;DHT22;1333;50.958;6.770;2023-11-18T07:01:45;5.50;99.90
2647;DHT22;1333;50.958;6.770;2023-11-18T07:04:10;5.60;99.90
2647;DHT22;1333;50.958;6.770;2023-11-18T07:06:37;5.60;99.90
2647;DHT22;1333;50.958;6.770;2023-11-18T07:09:07;5.60;99.90
2647;DHT22;1333;50.958;6.770;2023-11-18T07:11:43;5.60;99.90
2647;DHT22;1333;50.958;6.770;2023-11-18T07:14:10;5.60;99.90
2647;DHT22;1333;50.958;6.770;2023-11-18T07:16:38;5.70;99.90
2647;DHT22;1333;50.958;6.770;2023-11-18T07:19:04;5.70;99.90
2647;DHT22;1333;50.958;6.770;2023-11-18T07:21:30;5.70;99.90
2647;DHT22;1333;50.958;6.770;2023-11-18T07:23:56;5.70;99.90
2647;DHT22;1333;50.958;6.770;2023-11-18T07:26:22;5.70;99.90
2647;DHT22;1333;50.958;6.770;2023-11-18T07:28:49;5.70;99.90
2647;DHT22;1333;50.958;6.770;2023-11-18T07:31:15;5.70;99.90
2647;DHT22;1333;50.958;6.770;2023-11-18T07:33:44;5.80;99.90
2647;DHT22;1333;50.958;6.770;2023-11-18T07:36:15;5.70;99.90
2647;DHT22;1333;50.958;6.770;2023-11-18T07:38:41;5.80;99.90
2647;DHT22;1333;50.958;6.770;2023-11-18T07:41:07;5.80;99.90
2647;DHT22;1333;50.958;6.770;2023-11-18T07:43:37;5.80;99.90
2647;DHT22;1333;50.958;6.770;2023-11-18T07:46:03;5.80;99.90
2647;DHT22;1333;50.958;6.770;2023-11-18T07:48:28;5.80;99.90
2647;DHT22;1333;50.958;6.770;2023-11-18T07:50:56;5.90;99.90
2647;DHT22;1333;50.958;6.770;2023-11-18T07:53:22;5.90;99.90
2647;DHT22;1333;50.958;6.770;2023-11-18T07:55:47;6.00;99.90
2647;DHT22;1333;50.958;6.770;2023-11-18T07:58:15;6.00;99.90
2647;DHT22;1333;50.958;6.770;2023-11-18T08:00:43;6.10;99.90
2647;DHT22;1333;50.958;6.770;2023-11-18T08:03:13;6.20;99.90
2647;DHT22;1333;50.958;6.770;2023-11-18T08:05:39;6.20;99.90
2647;DHT22;1333;50.958;6.770;2023-11-18T08:08:08;6.10;99.90
2647;DHT22;1333;50.958;6.770;2023-11-18T08:10:36;6.20;99.90
2647;DHT22;1333;50.958;6.770;2023-11-18T08:13:08;6.30;99.90
2647;DHT22;1333;50.958;6.770;2023-11-18T08:15:37;6.40;99.90
2647;DHT22;1333;50.958;6.770;2023-11-18T08:18:03;6.40;99.90
2647;DHT22;1333;50.958;6.770;2023-11-18T08:20:29;6.50;99.90
2647;DHT22;1333;50.958;6.770;2023-11-18T08:22:54;6.50;99.90
2647;DHT22;1333;50.958;6.770;2023-11-18T08:25:20;6.50;99.90
2647;DHT22;1333;50.958;6.770;2023-11-18T08:27:47;6.50;99.90
2647;DHT22;1333;50.958;6.770;2023-11-18T08:30:13;6.60;99.90
2647;DHT22;1333;50.958;6.770;2023-11-18T08:32:40;6.70;99.90
2647;DHT22;1333;50.958;6.770;2023-11-18T08:35:09;6.70;99.90
2647;DHT22;1333;50.958;6.770;2023-11-18T08:37:36;6.70;99.90
2647;DHT22;1333;50.958;6.770;2023-11-18T08:40:03;6.80;99.90
2647;DHT22;1333;50.958;6.770;2023-11-18T08:42:29;6.80;99.90
2647;DHT22;1333;50.958;6.770;2023-11-18T08:44:57;6.90;99.90
2647;DHT22;1333;50.958;6.770;2023-11-18T08:47:24;6.90;99.90
2647;DHT22;1333;50.958;6.770;2023-11-18T08:49:50;6.90;99.90
2647;DHT22;1333;50.958;6.770;2023-11-18T08:52:15;7.00;99.90
2647;DHT22;1333;50.958;6.770;2023-11-18T08:54:43;7.10;99.90
2647;DHT22;1333;50.958;6.770;2023-11-18T08:57:28;7.10;99.90
2647;DHT22;1333;50.958;6.770;2023-11-18T08:59:59;7.10;99.90
2647;DHT22;1333;50.958;6.770;2023-11-18T09:02:25;7.10;99.90
2647;DHT22;1333;50.958;6.770;2023-11-18T09:04:50;7.20;99.90
2647;DHT22;1333;50.958;6.770;2023-11-18T09:07:17;7.20;99.90
2647;DHT22;1333;50.958;6.770;2023-11-18T09:09:44;7.20;99.90
2647;DHT22;1333;50.958;6.770;2023-11-18T09:12:11;7.30;99.90
2647;DHT22;1333;50.958;6.770;2023-11-18T09:14:40;7.30;99.90
2647;DHT22;1333;50.958;6.770;2023-11-18T09:17:08;7.20;99.90
2647;DHT22;1333;50.958;6.770;2023-11-18T09:19:33;7.30;99.90
2647;DHT22;1333;50.958;6.770;2023-11-18T09:21:59;7.30;99.90
2647;DHT22;1333;50.958;6.770;2023-11-18T09:24:24;7.30;99.90
2647;DHT22;1333;50.958;6.770;2023-11-18T09:26:50;7.30;99.90
2647;DHT22;1333;50.958;6.770;2023-11-18T09:29:19;7.30;99.90
2647;DHT22;1333;50.958;6.770;2023-11-18T09:31:49;7.40;99.90
2647;DHT22;1333;50.958;6.770;2023-11-18T09:34:15;7.40;99.90
2647;DHT22;1333;50.958;6.770;2023-11-18T09:36:43;7.40;99.90
2647;DHT22;1333;50.958;6.770;2023-11-18T09:39:09;7.50;99.90
2647;DHT22;1333;50.958;6.770;2023-11-18T09:41:41;7.50;99.90
2647;DHT22;1333;50.958;6.770;2023-11-18T09:44:06;7.70;99.90
2647;DHT22;1333;50.958;6.770;2023-11-18T09:46:35;7.70;99.90
2647;DHT22;1333;50.958;6.770;2023-11-18T09:51:44;7.80;99.90
2647;DHT22;1333;50.958;6.770;2023-11-18T09:54:20;7.80;99.90
2647;DHT22;1333;50.958;6.770;2023-11-18T10:02:25;7.90;99.90
2647;DHT22;1333;50.958;6.770;2023-11-18T10:04:52;8.00;99.90
2647;DHT22;1333;50.958;6.770;2023-11-18T10:07:26;8.00;99.90
2647;DHT22;1333;50.958;6.770;2023-11-18T10:09:55;8.10;99.90
2647;DHT22;1333;50.958;6.770;2023-11-18T10:12:24;8.00;99.90
2647;DHT22;1333;50.958;6.770;2023-11-18T10:14:52;8.00;99.90
2647;DHT22;1333;50.958;6.770;2023-11-18T10:17:17;8.10;99.90
2647;DHT22;1333;50.958;6.770;2023-11-18T10:22:28;8.20;99.90
2647;DHT22;1333;50.958;6.770;2023-11-18T10:24:55;8.10;99.90
2647;DHT22;1333;50.958;6.770;2023-11-18T10:29:49;8.20;99.90
2647;DHT22;1333;50.958;6.770;2023-11-18T10:32:17;8.20;99.90
2647;DHT22;1333;50.958;6.770;2023-11-18T10:34:47;8.20;99.90
2647;DHT22;1333;50.958;6.770;2023-11-18T10:37:15;8.30;99.90
2647;DHT22;1333;50.958;6.770;2023-11-18T10:39:46;8.30;99.90
2647;DHT22;1333;50.958;6.770;2023-11-18T10:42:13;8.30;99.90
2647;DHT22;1333;50.958;6.770;2023-11-18T10:44:54;8.40;99.90
2647;DHT22;1333;50.958;6.770;2023-11-18T10:47:21;8.50;99.90
2647;DHT22;1333;50.958;6.770;2023-11-18T10:49:50;8.50;99.90
2647;DHT22;1333;50.958;6.770;2023-11-18T10:52:16;8.60;99.90
2647;DHT22;1333;50.958;6.770;2023-11-18T10:54:51;8.50;99.90
2647;DHT22;1333;50.958;6.770;2023-11-18T10:57:20;8.60;99.90
2647;DHT22;1333;50.958;6.770;2023-11-18T11:00:02;8.60;99.90
2647;DHT22;1333;50.958;6.770;2023-11-18T11:02:32;8.60;99.90
2647;DHT22;1333;50.958;6.770;2023-11-18T11:05:05;8.60;99.90
2647;DHT22;1333;50.958;6.770;2023-11-18T11:07:32;8.50;99.90
2647;DHT22;1333;50.958;6.770;2023-11-18T11:10:00;8.40;99.90
2647;DHT22;1333;50.958;6.770;2023-11-18T11:12:37;8.50;99.90
2647;DHT22;1333;50.958;6.770;2023-11-18T11:15:12;8.50;99.90
2647;DHT22;1333;50.958;6.770;2023-11-18T11:17:48;8.50;99.90
2647;DHT22;1333;50.958;6.770;2023-11-18T11:20:21;8.60;99.90
2647;DHT22;1333;50.958;6.770;2023-11-18T11:31:17;9.10;99.90
2647;DHT22;1333;50.958;6.770;2023-11-18T11:33:58;9.20;99.90
2647;DHT22;1333;50.958;6.770;2023-11-18T11:36:30;9.30;99.90
2647;DHT22;1333;50.958;6.770;2023-11-18T11:38:59;9.40;99.90
2647;DHT22;1333;50.958;6.770;2023-11-18T11:41:27;9.30;99.90
2647;DHT22;1333;50.958;6.770;2023-11-18T11:43:55;9.40;99.90
2647;DHT22;1333;50.958;6.770;2023-11-18T11:46:24;9.50;99.90
2647;DHT22;1333;50.958;6.770;2023-11-18T11:48:50;9.40;99.90
2647;DHT22;1333;50.958;6.770;2023-11-18T11:53:58;9.40;99.90
2647;DHT22;1333;50.958;6.770;2023-11-18T11:56:45;9.50;99.90
2647;DHT22;1333;50.958;6.770;2023-11-18T12:02:11;9.50;99.90
2647;DHT22;1333;50.958;6.770;2023-11-18T12:04:43;9.60;99.90
2647;DHT22;1333;50.958;6.770;2023-11-18T12:07:09;9.60;99.90
2647;DHT22;1333;50.958;6.770;2023-11-18T12:09:39;9.60;99.90
2647;DHT22;1333;50.958;6.770;2023-11-18T12:12:14;9.70;99.90
2647;DHT22;1333;50.958;6.770;2023-11-18T12:14:55;9.70;99.90
2647;DHT22;1333;50.958;6.770;2023-11-18T12:20:40;9.70;99.90
2647;DHT22;1333;50.958;6.770;2023-11-18T12:23:08;9.60;99.90
2647;DHT22;1333;50.958;6.770;2023-11-18T12:25:43;9.60;99.90
2647;DHT22;1333;50.958;6.770;2023-11-18T12:28:14;9.70;99.90
2647;DHT22;1333;50.958;6.770;2023-11-18T12:30:41;9.60;99.90
2647;DHT22;1333;50.958;6.770;2023-11-18T12:33:17;9.70;99.90
2647;DHT22;1333;50.958;6.770;2023-11-18T12:41:38;9.70;99.90
2647;DHT22;1333;50.958;6.770;2023-11-18T12:44:15;9.70;99.90
2647;DHT22;1333;50.958;6.770;2023-11-18T12:47:03;9.60;99.90
2647;DHT22;1333;50.958;6.770;2023-11-18T12:49:44;9.60;99.90
2647;DHT22;1333;50.958;6.770;2023-11-18T12:52:11;9.50;99.90
2647;DHT22;1333;50.958;6.770;2023-11-18T12:54:40;9.50;99.90
2647;DHT22;1333;50.958;6.770;2023-11-18T12:57:10;9.40;99.90
2647;DHT22;1333;50.958;6.770;2023-11-18T12:59:39;9.20;99.90
2647;DHT22;1333;50.958;6.770;2023-11-18T13:02:11;9.20;99.90
2647;DHT22;1333;50.958;6.770;2023-11-18T13:04:43;9.00;99.90
2647;DHT22;1333;50.958;6.770;2023-11-18T13:07:16;8.90;99.90
2647;DHT22;1333;50.958;6.770;2023-11-18T13:09:47;8.90;99.90
2647;DHT22;1333;50.958;6.770;2023-11-18T13:12:13;8.80;99.90
2647;DHT22;1333;50.958;6.770;2023-11-18T13:14:43;8.70;99.90
2647;DHT22;1333;50.958;6.770;2023-11-18T13:17:10;8.70;99.90
2647;DHT22;1333;50.958;6.770;2023-11-18T13:19:41;8.60;99.90
2647;DHT22;1333;50.958;6.770;2023-11-18T13:22:09;8.60;99.90
2647;DHT22;1333;50.958;6.770;2023-11-18T13:24:36;8.50;99.90
2647;DHT22;1333;50.958;6.770;2023-11-18T13:27:02;8.50;99.90
2647;DHT22;1333;50.958;6.770;2023-11-18T13:29:32;8.40;99.90
2647;DHT22;1333;50.958;6.770;2023-11-18T13:32:00;8.40;99.90
2647;DHT22;1333;50.958;6.770;2023-11-18T13:34:29;8.30;99.90
2647;DHT22;1333;50.958;6.770;2023-11-18T13:36:57;8.30;99.90
2647;DHT22;1333;50.958;6.770;2023-11-18T13:39:23;8.30;99.90
2647;DHT22;1333;50.958;6.770;2023-11-18T13:41:52;8.30;99.90
2647;DHT22;1333;50.958;6.770;2023-11-18T13:44:35;8.30;99.90
2647;DHT22;1333;50.958;6.770;2023-11-18T13:47:01;8.20;99.90
2647;DHT22;1333;50.958;6.770;2023-11-18T13:49:33;8.20;99.90
2647;DHT22;1333;50.958;6.770;2023-11-18T13:52:00;8.20;99.90
2647;DHT22;1333;50.958;6.770;2023-11-18T13:54:29;8.10;99.90
2647;DHT22;1333;50.958;6.770;2023-11-18T13:56:58;8.00;99.90
2647;DHT22;1333;50.958;6.770;2023-11-18T13:59:25;8.00;99.90
2647;DHT22;1333;50.958;6.770;2023-11-18T14:01:55;8.00;99.90
2647;DHT22;1333;50.958;6.770;2023-11-18T14:04:31;8.00;99.90
2647;DHT22;1333;50.958;6.770;2023-11-18T14:07:01;8.00;99.90
2647;DHT22;1333;50.958;6.770;2023-11-18T14:09:37;8.00;99.90
2647;DHT22;1333;50.958;6.770;2023-11-18T14:12:07;8.00;99.90
2647;DHT22;1333;50.958;6.770;2023-11-18T14:14:33;8.00;99.90
2647;DHT22;1333;50.958;6.770;2023-11-18T14:16:59;8.00;99.90
2647;DHT22;1333;50.958;6.770;2023-11-18T14:19:25;8.00;99.90
2647;DHT22;1333;50.958;6.770;2023-11-18T14:21:51;8.00;99.90
2647;DHT22;1333;50.958;6.770;2023-11-18T14:24:17;8.00;99.90
2647;DHT22;1333;50.958;6.770;2023-11-18T14:26:43;8.00;99.90
2647;DHT22;1333;50.958;6.770;2023-11-18T14:29:09;8.00;99.90
2647;DHT22;1333;50.958;6.770;2023-11-18T14:31:37;7.90;99.90
2647;DHT22;1333;50.958;6.770;2023-11-18T14:34:03;7.90;99.90
2647;DHT22;1333;50.958;6.770;2023-11-18T14:36:29;7.90;99.90
2647;DHT22;1333;50.958;6.770;2023-11-18T14:38:54;7.90;99.90
2647;DHT22;1333;50.958;6.770;2023-11-18T14:41:20;8.00;99.90
2647;DHT22;1333;50.958;6.770;2023-11-18T14:43:50;8.00;99.90
2647;DHT22;1333;50.958;6.770;2023-11-18T14:46:16;7.90;99.90
2647;DHT22;1333;50.958;6.770;2023-11-18T14:48:41;7.90;99.90
2647;DHT22;1333;50.958;6.770;2023-11-18T14:51:07;7.90;99.90
2647;DHT22;1333;50.958;6.770;2023-11-18T14:53:33;7.90;99.90
2647;DHT22;1333;50.958;6.770;2023-11-18T14:56:03;7.90;99.90
2647;DHT22;1333;50.958;6.770;2023-11-18T14:58:31;7.90;99.90
2647;DHT22;1333;50.958;6.770;2023-11-18T15:00:58;7.90;99.90
2647;DHT22;1333;50.958;6.770;2023-11-18T15:03:24;7.90;99.90
2647;DHT22;1333;50.958;6.770;2023-11-18T15:05:50;7.80;99.90
2647;DHT22;1333;50.958;6.770;2023-11-18T15:08:16;7.80;99.90
2647;DHT22;1333;50.958;6.770;2023-11-18T15:10:41;7.80;99.90
2647;DHT22;1333;50.958;6.770;2023-11-18T15:13:08;7.80;99.90
2647;DHT22;1333;50.958;6.770;2023-11-18T15:15:44;7.80;99.90
2647;DHT22;1333;50.958;6.770;2023-11-18T15:18:12;7.80;99.90
2647;DHT22;1333;50.958;6.770;2023-11-18T15:20:48;7.80;99.90
2647;DHT22;1333;50.958;6.770;2023-11-18T15:23:15;7.80;99.90
2647;DHT22;1333;50.958;6.770;2023-11-18T15:25:47;7.80;99.90
2647;DHT22;1333;50.958;6.770;2023-11-18T15:28:13;7.80;99.90
2647;DHT22;1333;50.958;6.770;2023-11-18T15:30:40;7.80;99.90
2647;DHT22;1333;50.958;6.770;2023-11-18T15:33:06;7.80;99.90
2647;DHT22;1333;50.958;6.770;2023-11-18T15:35:35;7.80;99.90
2647;DHT22;1333;50.958;6.770;2023-11-18T15:38:09;7.80;99.90
2647;DHT22;1333;50.958;6.770;2023-11-18T15:40:42;7.80;99.90
2647;DHT22;1333;50.958;6.770;2023-11-18T15:43:08;7.80;99.90
2647;DHT22;1333;50.958;6.770;2023-11-18T15:45:37;7.80;99.90
2647;DHT22;1333;50.958;6.770;2023-11-18T15:48:03;7.70;99.90
2647;DHT22;1333;50.958;6.770;2023-11-18T15:50:31;7.80;99.90
2647;DHT22;1333;50.958;6.770;2023-11-18T15:52:57;7.80;99.90
2647;DHT22;1333;50.958;6.770;2023-11-18T15:55:23;7.80;99.90
2647;DHT22;1333;50.958;6.770;2023-11-18T15:57:51;7.80;99.90
2647;DHT22;1333;50.958;6.770;2023-11-18T16:00:24;7.80;99.90
2647;DHT22;1333;50.958;6.770;2023-11-18T16:02:54;7.70;99.90
2647;DHT22;1333;50.958;6.770;2023-11-18T16:05:21;7.70;99.90
2647;DHT22;1333;50.958;6.770;2023-11-18T16:07:48;7.70;99.90
2647;DHT22;1333;50.958;6.770;2023-11-18T16:10:16;7.80;99.90
2647;DHT22;1333;50.958;6.770;2023-11-18T16:12:53;7.80;99.90
2647;DHT22;1333;50.958;6.770;2023-11-18T16:15:20;7.80;99.90
2647;DHT22;1333;50.958;6.770;2023-11-18T16:17:46;7.80;99.90
2647;DHT22;1333;50.958;6.770;2023-11-18T16:20:12;7.80;99.90
2647;DHT22;1333;50.958;6.770;2023-11-18T16:22:44;7.80;99.90
2647;DHT22;1333;50.958;6.770;2023-11-18T16:25:17;7.80;99.90
2647;DHT22;1333;50.958;6.770;2023-11-18T16:27:46;7.80;99.90
2647;DHT22;1333;50.958;6.770;2023-11-18T16:30:15;7.80;99.90
2647;DHT22;1333;50.958;6.770;2023-11-18T16:32:41;7.80;99.90
2647;DHT22;1333;50.958;6.770;2023-11-18T16:35:07;7.80;99.90
2647;DHT22;1333;50.958;6.770;2023-11-18T16:37:40;7.80;99.90
2647;DHT22;1333;50.958;6.770;2023-11-18T16:40:07;7.80;99.90
2647;DHT22;1333;50.958;6.770;2023-11-18T16:42:38;7.80;99.90
2647;DHT22;1333;50.958;6.770;2023-11-18T16:45:04;7.80;99.90
2647;DHT22;1333;50.958;6.770;2023-11-18T16:47:30;7.80;99.90
2647;DHT22;1333;50.958;6.770;2023-11-18T16:49:55;7.80;99.90
2647;DHT22;1333;50.958;6.770;2023-11-18T16:52:21;7.80;99.90
2647;DHT22;1333;50.958;6.770;2023-11-18T16:54:46;7.80;99.90
2647;DHT22;1333;50.958;6.770;2023-11-18T16:57:12;7.80;99.90